Aérodrome :
LOGIN :

S'inscrire | Disclaimer

   EN    FR    IT 

 










Légende :    VFR   VFR Marginal   IFR   IFR Intensif   IFR Très Intensif
Visi : 
Plafond : 
>= 8 km
>= 3000ft
5 à 8 km
1000 à 3000 ft
1500m à 5 km
500 à 1000 ft
800 à 1500m
200 à 500 ft
< 800m
< 200 ft
Symboles :   Orages  Brouillard  Fortes neiges  Fortes précipitations  Vent > 20 kt
SIGMETs :   Divers  Orages  Givrage  Turbulence  Onde Orograph.  Cendres Volcan.






- Altitude de l'aérodrome : 288 ft
- Code IATA : BZZ


EGVN - RAF Brize Norton

DERNIER METAR :
  • 291850Z 24005KT 9999 FEW015 SCT250 06/04 Q1023 NOSIG

METARs EXPIRÉS :
  • 291820Z 25005KT 9999 FEW015 SCT250 07/04 Q1023 NOSIG RMK BLU BLU
  • 291750Z 22004KT 9999 FEW015 BKN250 07/04 Q1022 NOSIG RMK BLU BLU
  • 291720Z 24005KT 9999 FEW020 BKN250 07/06 Q1022 NOSIG RMK BLU BLU
  • 291650Z 25007KT 9999 FEW020 BKN250 08/06 Q1022 NOSIG RMK BLU BLU
  • 291620Z 23004KT 9999 FEW020 BKN250 09/06 Q1022 NOSIG RMK BLU BLU

TAF TAF EGVN
Valide du 29 à 18h jusqu'au 30 à 18h UTC


291632Z 2918/3018 24006KT 9999 SCT025
PROB30
TEMPO 2918/2920 SCT018
BECMG 2920/2923 BKN008
PROB30
TEMPO 2923/3003 4500 -RADZ SCT005
BECMG 3003/3006 FEW030



MET'MAP, la Météo Aéronautique d'un coup d'oeil ! - Copyright ORBIFLY Décembre 2007 - Disclaimer

ORBIFLY MET'MAP TEAM :

Programmation & Développement : Alexandra Zaïnal
Sur une idée originale de : Baudouin d'Aumeries
Soutien technique & logistique : Manuel Goepfert
Assistance : Marc-Olivier Méhu




SOURCES & CREDITS :

   NOAA